Time;durP1;ratioP1;P1;durP2;ratioP2;P2;SDS_P1;SDS_P2;PMS_P1;PMS_P2;Temp;Humidity;BMP_temperature;BMP_pressure;BME280_temperature;BME280_humidity;BME280_pressure;Samples;Min_cycle;Max_cycle;Signal;HPM_P1;HPM_P2
2022/02/19 00:01:03;;;;;;;13.10;2.03;;;6.30;91.00;;;;;;6272804;22;20003;-72
2022/02/19 00:03:31;;;;;;;15.25;1.90;;;6.30;91.00;;;;;;6246047;22;20041;-72
2022/02/19 00:05:56;;;;;;;14.48;1.75;;;6.30;91.00;;;;;;6273095;22;20571;-72
2022/02/19 00:08:22;;;;;;;10.85;1.65;;;6.30;91.10;;;;;;6273256;22;20070;-72
2022/02/19 00:10:49;;;;;;;12.23;1.60;;;6.30;91.20;;;;;;6273375;22;19999;-72
2022/02/19 00:13:15;;;;;;;13.00;1.80;;;6.20;91.20;;;;;;6273165;22;20511;-72
2022/02/19 00:15:41;;;;;;;13.40;1.80;;;6.20;91.20;;;;;;6272717;22;20074;-72
2022/02/19 00:18:07;;;;;;;12.85;1.60;;;6.20;91.30;;;;;;6273138;22;20089;-72
2022/02/19 00:20:33;;;;;;;10.45;1.48;;;6.10;91.30;;;;;;6246379;22;20003;-72
2022/02/19 00:22:59;;;;;;;11.70;2.08;;;6.10;91.40;;;;;;6273287;22;19999;-72
2022/02/19 00:25:26;;;;;;;14.15;1.70;;;6.10;91.50;;;;;;6272913;22;20003;-72
2022/02/19 00:27:52;;;;;;;15.45;2.08;;;6.10;91.50;;;;;;6273514;22;20010;-72
2022/02/19 00:30:19;;;;;;;9.10;2.13;;;6.10;91.50;;;;;;6273185;22;20000;-72
2022/02/19 00:32:45;;;;;;;11.93;1.48;;;6.10;91.40;;;;;;6273203;22;20022;-72
2022/02/19 00:35:12;;;;;;;12.30;2.03;;;6.00;91.50;;;;;;6272884;22;20000;-72
2022/02/19 00:37:38;;;;;;;13.50;1.40;;;6.00;91.50;;;;;;6273205;22;20003;-72
2022/02/19 00:40:04;;;;;;;15.30;1.88;;;5.90;91.50;;;;;;6245743;22;20007;-72
2022/02/19 00:42:30;;;;;;;10.80;1.73;;;5.90;91.50;;;;;;6273064;22;20008;-72
2022/02/19 00:44:56;;;;;;;8.88;1.60;;;5.90;91.50;;;;;;6273210;22;20022;-72
2022/02/19 00:47:21;;;;;;;17.98;1.88;;;5.90;91.40;;;;;;6273301;22;20000;-72
2022/02/19 00:49:47;;;;;;;15.13;2.15;;;5.80;91.40;;;;;;6272792;22;20000;-72
2022/02/19 00:52:13;;;;;;;11.52;1.70;;;5.70;91.40;;;;;;6272794;22;20043;-72
2022/02/19 00:54:39;;;;;;;15.95;1.92;;;5.70;91.70;;;;;;6273157;22;20424;-72
2022/02/19 00:57:04;;;;;;;11.55;1.70;;;5.70;91.70;;;;;;6272936;22;20085;-72
2022/02/19 00:59:30;;;;;;;8.35;1.38;;;5.60;91.90;;;;;;6274335;22;20000;-72
2022/02/19 01:01:56;;;;;;;14.30;2.42;;;5.60;92.00;;;;;;6274996;22;20004;-72
2022/02/19 01:04:22;;;;;;;11.98;1.60;;;5.60;92.10;;;;;;6274893;22;20004;-72
2022/02/19 01:06:47;;;;;;;11.40;1.88;;;5.50;92.10;;;;;;6274770;22;20363;-72
2022/02/19 01:09:13;;;;;;;11.90;1.60;;;5.50;92.20;;;;;;6274757;22;20004;-72
2022/02/19 01:11:39;;;;;;;9.80;1.52;;;5.50;92.40;;;;;;6275006;22;20015;-72
2022/02/19 01:14:07;;;;;;;11.75;1.55;;;5.50;92.40;;;;;;6274905;22;20041;-72
2022/02/19 01:16:33;;;;;;;15.43;1.98;;;5.40;92.90;;;;;;6274752;22;20003;-72
2022/02/19 01:18:59;;;;;;;11.65;1.80;;;5.40;92.50;;;;;;6274633;22;20340;-72
2022/02/19 01:21:24;;;;;;;11.43;1.80;;;5.30;92.80;;;;;;6275270;22;20014;-72
2022/02/19 01:23:50;;;;;;;12.75;1.90;;;5.30;92.90;;;;;;6274443;22;20337;-72
2022/02/19 01:26:16;;;;;;;14.07;2.05;;;5.30;93.40;;;;;;6274636;22;19999;-72
2022/02/19 01:28:42;;;;;;;8.85;1.80;;;5.30;93.70;;;;;;6247700;22;20000;-72
2022/02/19 01:31:08;;;;;;;11.85;1.58;;;5.30;93.90;;;;;;6274628;22;20082;-72
2022/02/19 01:33:34;;;;;;;13.45;3.33;;;5.20;93.80;;;;;;6275032;22;20023;-72
2022/02/19 01:35:59;;;;;;;12.52;1.90;;;5.30;93.80;;;;;;6274844;22;20005;-72
2022/02/19 01:38:27;;;;;;;11.15;1.90;;;5.20;94.00;;;;;;6274558;22;20667;-72
2022/02/19 01:40:53;;;;;;;11.10;1.90;;;5.20;94.00;;;;;;6274816;22;20006;-72
2022/02/19 01:43:18;;;;;;;9.80;2.63;;;5.20;94.30;;;;;;6274536;22;20005;-72
2022/02/19 01:45:48;;;;;;;10.70;1.60;;;5.20;94.30;;;;;;6274665;22;20011;-72
2022/02/19 01:48:14;;;;;;;10.68;1.50;;;5.30;94.50;;;;;;6274568;22;20000;-72
2022/02/19 01:50:41;;;;;;;15.10;2.28;;;5.20;94.50;;;;;;6274574;22;20342;-72
2022/02/19 01:53:07;;;;;;;13.48;2.05;;;5.20;94.60;;;;;;6274222;22;20050;-72
2022/02/19 01:55:34;;;;;;;14.65;2.08;;;5.20;94.60;;;;;;6274521;22;19996;-72
2022/02/19 01:58:02;;;;;;;13.63;2.10;;;5.20;94.90;;;;;;6274400;22;20034;-72
2022/02/19 02:00:28;;;;;;;13.05;1.80;;;5.10;94.90;;;;;;6274595;22;20004;-72
2022/02/19 02:02:56;;;;;;;17.88;2.63;;;5.10;95.30;;;;;;6274498;22;20034;-72
2022/02/19 02:05:22;;;;;;;13.88;2.35;;;5.10;95.80;;;;;;6274321;22;20071;-72
2022/02/19 02:07:48;;;;;;;12.68;2.42;;;5.10;96.20;;;;;;6274007;22;20007;-72
2022/02/19 02:10:15;;;;;;;13.55;1.98;;;5.20;96.40;;;;;;6274407;22;20034;-72
2022/02/19 02:12:41;;;;;;;13.65;2.30;;;5.20;96.40;;;;;;6274313;22;20016;-72
2022/02/19 02:15:25;;;;;;;14.13;1.88;;;5.20;96.20;;;;;;6274216;22;20003;-72
2022/02/19 02:17:51;;;;;;;14.38;1.85;;;5.20;96.00;;;;;;6273955;22;20004;-72
2022/02/19 02:20:17;;;;;;;19.23;2.20;;;5.20;95.90;;;;;;6274382;22;20000;-72
2022/02/19 02:22:43;;;;;;;12.13;2.00;;;5.10;95.90;;;;;;6274338;22;20075;-72
2022/02/19 02:25:11;;;;;;;15.00;2.33;;;5.10;95.90;;;;;;6274503;22;20024;-72
2022/02/19 02:27:37;;;;;;;15.90;2.00;;;5.10;96.10;;;;;;6274637;22;20008;-72
2022/02/19 02:30:04;;;;;;;10.52;2.00;;;5.10;96.20;;;;;;6274450;22;20467;-72
2022/02/19 02:32:30;;;;;;;14.27;2.00;;;5.00;96.30;;;;;;6274150;22;20011;-72
2022/02/19 02:34:56;;;;;;;13.77;2.20;;;5.00;96.30;;;;;;6274326;22;20011;-72
2022/02/19 02:37:23;;;;;;;12.23;1.98;;;5.00;96.30;;;;;;6273883;22;20444;-72
2022/02/19 02:39:50;;;;;;;17.85;2.28;;;5.00;96.30;;;;;;6274093;22;19995;-72
2022/02/19 02:42:18;;;;;;;14.35;1.90;;;5.00;96.40;;;;;;6274080;22;20026;-72
2022/02/19 02:44:44;;;;;;;12.60;1.92;;;4.90;96.30;;;;;;6274482;22;20002;-72
2022/02/19 02:47:10;;;;;;;15.18;2.20;;;4.90;96.40;;;;;;6273946;22;20075;-72
2022/02/19 02:49:36;;;;;;;13.40;2.22;;;4.90;96.50;;;;;;6274119;22;20019;-72
2022/02/19 02:52:03;;;;;;;10.48;1.90;;;4.90;96.90;;;;;;6273528;22;20452;-72
2022/02/19 02:54:29;;;;;;;13.63;2.00;;;4.90;96.70;;;;;;6247084;22;20003;-72
2022/02/19 02:56:55;;;;;;;12.45;1.95;;;4.80;96.60;;;;;;6273356;22;20452;-72
2022/02/19 02:59:21;;;;;;;11.43;1.83;;;4.80;96.50;;;;;;6273729;22;20000;-72
2022/02/19 03:01:47;;;;;;;11.23;1.88;;;4.80;96.60;;;;;;6273987;22;20432;-72
2022/02/19 03:04:12;;;;;;;13.35;2.28;;;4.80;96.50;;;;;;6273763;22;20004;-72
2022/02/19 03:06:38;;;;;;;10.52;1.70;;;4.80;96.60;;;;;;6273553;22;20432;-72
2022/02/19 03:09:04;;;;;;;10.57;1.67;;;4.70;96.60;;;;;;6273916;22;20000;-72
2022/02/19 03:11:30;;;;;;;13.90;2.10;;;4.70;96.60;;;;;;6274154;22;20050;-72
2022/02/19 03:13:55;;;;;;;10.40;1.88;;;4.60;96.60;;;;;;6273584;22;20035;-72
2022/02/19 03:16:21;;;;;;;10.90;1.80;;;4.60;96.60;;;;;;6273328;22;19995;-72
2022/02/19 03:18:47;;;;;;;12.98;1.90;;;4.60;96.70;;;;;;6273751;22;20011;-72
2022/02/19 03:21:12;;;;;;;11.43;1.80;;;4.60;96.70;;;;;;6273297;22;20023;-72
2022/02/19 03:23:38;;;;;;;12.18;1.90;;;4.50;96.70;;;;;;6274165;22;20026;-71
2022/02/19 03:26:07;;;;;;;9.65;1.90;;;4.50;96.80;;;;;;6273672;22;20451;-72
2022/02/19 03:28:34;;;;;;;7.20;1.80;;;4.50;97.00;;;;;;6273557;22;20011;-72
2022/02/19 03:31:00;;;;;;;13.52;2.20;;;4.50;97.20;;;;;;6273667;22;20003;-72
2022/02/19 03:33:26;;;;;;;10.88;1.60;;;4.50;97.30;;;;;;6273948;22;20114;-72
2022/02/19 03:35:54;;;;;;;13.25;1.73;;;4.40;97.60;;;;;;6272694;22;19996;-72
2022/02/19 03:38:20;;;;;;;14.23;1.90;;;4.40;97.70;;;;;;6274170;22;20085;-72
2022/02/19 03:40:46;;;;;;;14.80;1.67;;;4.40;97.90;;;;;;6246291;22;20003;-72
2022/02/19 03:43:12;;;;;;;14.75;2.13;;;4.40;98.00;;;;;;6245938;22;20050;-71
2022/02/19 03:45:41;;;;;;;11.50;1.90;;;4.40;98.20;;;;;;6273417;22;19996;-72
2022/02/19 03:48:07;;;;;;;8.02;1.70;;;4.40;98.20;;;;;;6273734;22;20122;-72
2022/02/19 03:50:33;;;;;;;11.80;1.70;;;4.40;98.30;;;;;;6273616;22;20174;-72
2022/02/19 03:52:59;;;;;;;11.45;1.60;;;4.40;98.20;;;;;;6272984;22;20011;-72
2022/02/19 03:55:25;;;;;;;9.93;1.52;;;4.30;98.10;;;;;;6273186;22;20019;-72
2022/02/19 03:57:50;;;;;;;14.90;1.80;;;4.30;98.00;;;;;;6273594;22;20023;-72
2022/02/19 04:00:17;;;;;;;10.65;1.70;;;4.30;98.00;;;;;;6273315;22;20000;-72
2022/02/19 04:02:43;;;;;;;13.25;1.70;;;4.30;98.00;;;;;;6273512;22;20010;-72
2022/02/19 04:05:13;;;;;;;9.63;1.60;;;4.20;98.00;;;;;;6273449;22;19996;-72
2022/02/19 04:07:38;;;;;;;15.07;1.95;;;4.20;98.00;;;;;;6273218;22;19996;-71
2022/02/19 04:10:05;;;;;;;12.02;2.30;;;4.20;98.10;;;;;;6273334;22;20007;-71
2022/02/19 04:12:31;;;;;;;13.77;2.15;;;4.20;98.10;;;;;;6273016;22;20086;-72
2022/02/19 04:14:57;;;;;;;16.80;2.53;;;4.20;98.10;;;;;;6273527;22;20442;-72
2022/02/19 04:17:23;;;;;;;9.95;1.67;;;4.20;98.10;;;;;;6273223;22;20447;-72
2022/02/19 04:19:50;;;;;;;11.25;2.40;;;4.20;98.20;;;;;;6273927;22;20082;-72
2022/02/19 04:22:17;;;;;;;12.63;1.70;;;4.20;98.40;;;;;;6273805;22;20012;-72
2022/02/19 04:24:43;;;;;;;13.48;1.67;;;4.20;98.10;;;;;;6246005;22;20322;-72
2022/02/19 04:27:09;;;;;;;11.02;1.88;;;4.10;98.00;;;;;;6273116;22;20004;-72
2022/02/19 04:29:35;;;;;;;9.95;1.92;;;4.10;98.00;;;;;;6273380;22;20008;-72
2022/02/19 04:32:00;;;;;;;10.90;1.83;;;4.10;97.90;;;;;;6272479;22;20086;-72
2022/02/19 04:34:26;;;;;;;9.68;1.73;;;4.10;97.90;;;;;;6275000;22;20417;-72
2022/02/19 04:36:52;;;;;;;7.10;1.65;;;4.00;97.80;;;;;;6275395;22;20000;-72
2022/02/19 04:39:19;;;;;;;12.65;2.40;;;4.00;97.90;;;;;;6275365;22;20065;-71
2022/02/19 04:41:45;;;;;;;13.77;1.77;;;4.00;97.90;;;;;;6275491;22;20004;-72
2022/02/19 04:44:11;;;;;;;10.98;1.40;;;4.00;97.90;;;;;;6275659;22;20445;-72
2022/02/19 04:46:37;;;;;;;13.07;2.10;;;3.90;97.90;;;;;;6275075;22;20003;-71
2022/02/19 04:49:03;;;;;;;11.43;1.60;;;3.90;98.20;;;;;;6275342;22;20428;-72
2022/02/19 04:51:29;;;;;;;14.40;1.75;;;3.90;98.40;;;;;;6274698;22;20007;-72
2022/02/19 04:53:55;;;;;;;9.27;1.55;;;3.90;98.40;;;;;;6275314;22;20356;-72
2022/02/19 04:56:21;;;;;;;8.70;1.83;;;3.90;98.60;;;;;;6275366;22;20483;-72
2022/02/19 04:58:47;;;;;;;12.13;1.73;;;3.90;98.60;;;;;;6275461;22;20025;-72
2022/02/19 05:01:14;;;;;;;13.82;1.77;;;3.80;98.70;;;;;;6274940;22;20071;-72
2022/02/19 05:03:40;;;;;;;10.82;1.90;;;3.80;98.70;;;;;;6275306;22;19999;-71
2022/02/19 05:06:05;;;;;;;18.02;1.80;;;3.80;98.80;;;;;;6275156;22;20011;-72
2022/02/19 05:08:32;;;;;;;11.05;1.70;;;3.80;99.00;;;;;;6275002;22;20340;-72
2022/02/19 05:10:57;;;;;;;14.13;1.70;;;3.80;99.40;;;;;;6275057;22;20011;-72
2022/02/19 05:13:23;;;;;;;9.23;1.60;;;3.80;99.60;;;;;;6274931;22;20012;-72
2022/02/19 05:15:49;;;;;;;13.85;1.88;;;3.80;99.70;;;;;;6274691;22;20007;-71
2022/02/19 05:18:15;;;;;;;16.60;1.92;;;3.80;99.90;;;;;;6275418;22;20008;-72
2022/02/19 05:20:41;;;;;;;11.80;1.70;;;3.80;99.90;;;;;;6275050;22;19996;-72
2022/02/19 05:23:07;;;;;;;10.90;1.80;;;3.80;99.90;;;;;;6275024;22;20003;-72
2022/02/19 05:25:33;;;;;;;15.93;2.00;;;3.90;99.90;;;;;;6274763;22;20034;-72
2022/02/19 05:27:59;;;;;;;10.25;1.75;;;3.80;99.90;;;;;;6274875;22;20003;-72
2022/02/19 05:30:25;;;;;;;8.85;1.60;;;3.80;99.90;;;;;;6274732;22;20393;-72
2022/02/19 05:32:51;;;;;;;14.13;1.70;;;3.80;99.80;;;;;;6275198;22;20103;-72
2022/02/19 05:35:17;;;;;;;11.45;1.70;;;3.80;99.90;;;;;;6274810;22;20023;-72
2022/02/19 05:37:44;;;;;;;10.15;1.52;;;3.80;99.70;;;;;;6274976;22;20083;-72
2022/02/19 05:40:10;;;;;;;13.23;2.08;;;3.70;99.50;;;;;;6274561;22;20017;-72
2022/02/19 05:42:35;;;;;;;19.30;2.00;;;3.70;99.60;;;;;;6274539;22;20078;-72
2022/02/19 05:45:01;;;;;;;14.23;1.65;;;3.70;99.70;;;;;;6274761;22;20046;-72
2022/02/19 05:47:27;;;;;;;13.70;1.70;;;3.70;99.90;;;;;;6274848;22;20038;-72
2022/02/19 05:49:53;;;;;;;10.10;1.60;;;3.60;99.90;;;;;;6274724;22;20004;-72
2022/02/19 05:52:19;;;;;;;12.85;1.65;;;3.60;99.90;;;;;;6274488;22;20353;-72
2022/02/19 05:54:45;;;;;;;12.38;2.58;;;3.60;99.90;;;;;;6274630;22;20361;-72
2022/02/19 05:57:11;;;;;;;9.48;2.30;;;3.60;99.90;;;;;;6273974;22;20016;-73
2022/02/19 05:59:37;;;;;;;11.43;2.45;;;3.50;99.90;;;;;;6274437;22;20004;-72
2022/02/19 06:02:03;;;;;;;14.27;2.83;;;3.50;99.90;;;;;;6274644;22;20003;-72
2022/02/19 06:04:34;;;;;;;14.35;3.08;;;3.50;99.90;;;;;;6274007;22;20845;-72
2022/02/19 06:06:59;;;;;;;13.05;2.97;;;3.40;99.90;;;;;;6247460;22;20176;-72
2022/02/19 06:09:25;;;;;;;11.30;2.63;;;3.40;99.90;;;;;;6274405;22;20451;-72
2022/02/19 06:11:51;;;;;;;14.13;2.83;;;3.40;99.90;;;;;;6274443;22;20329;-72
2022/02/19 06:14:16;;;;;;;10.88;2.40;;;3.40;99.90;;;;;;6273965;22;20034;-72
2022/02/19 06:16:42;;;;;;;13.55;2.60;;;3.40;99.90;;;;;;6274190;22;20079;-72
2022/02/19 06:19:08;;;;;;;12.15;2.25;;;3.40;99.90;;;;;;6274390;22;20000;-72
2022/02/19 06:21:34;;;;;;;9.52;1.88;;;3.30;99.90;;;;;;6274032;22;20030;-72
2022/02/19 06:23:59;;;;;;;9.23;1.83;;;3.30;99.90;;;;;;6273865;22;19999;-72
2022/02/19 06:26:25;;;;;;;11.05;1.95;;;3.30;99.80;;;;;;6273980;22;20083;-72
2022/02/19 06:28:51;;;;;;;11.55;1.95;;;3.30;99.60;;;;;;6274251;22;20016;-72
2022/02/19 06:31:17;;;;;;;13.85;1.83;;;3.30;99.50;;;;;;6274355;22;20010;-72
2022/02/19 06:33:42;;;;;;;9.07;2.03;;;3.30;99.40;;;;;;6274369;22;20559;-72
2022/02/19 06:36:08;;;;;;;10.32;1.88;;;3.20;99.50;;;;;;6274398;22;20014;-72
2022/02/19 06:38:39;;;;;;;10.05;2.28;;;3.20;99.70;;;;;;6274276;22;20655;-72
2022/02/19 06:41:09;;;;;;;6.05;1.55;;;3.20;99.80;;;;;;6273910;22;20058;-73
2022/02/19 06:43:35;;;;;;;11.57;2.05;;;3.20;99.90;;;;;;6274608;22;20007;-73
2022/02/19 06:46:02;;;;;;;9.73;1.77;;;3.20;99.90;;;;;;6274447;22;20004;-73
2022/02/19 06:48:28;;;;;;;9.15;1.60;;;3.20;99.90;;;;;;6274123;22;20007;-73
2022/02/19 06:50:54;;;;;;;11.60;1.83;;;3.20;99.90;;;;;;6273744;22;20003;-74
2022/02/19 06:53:20;;;;;;;8.93;1.90;;;3.10;99.90;;;;;;6273753;22;20047;-74
2022/02/19 06:55:46;;;;;;;12.65;1.80;;;3.10;99.90;;;;;;6273046;22;20000;-73
2022/02/19 06:58:11;;;;;;;8.50;1.60;;;3.10;99.90;;;;;;6273310;22;20081;-73
2022/02/19 07:00:37;;;;;;;11.23;2.00;;;3.10;99.90;;;;;;6273066;22;20050;-74
2022/02/19 07:03:03;;;;;;;10.50;2.00;;;3.10;99.90;;;;;;6274132;22;20379;-74
2022/02/19 07:05:28;;;;;;;11.80;2.33;;;3.10;99.90;;;;;;6273808;22;20453;-73
2022/02/19 07:07:54;;;;;;;13.23;2.17;;;3.10;99.90;;;;;;6273499;22;20061;-74
2022/02/19 07:10:20;;;;;;;9.45;1.73;;;3.10;99.90;;;;;;6273826;22;20015;-74
2022/02/19 07:12:45;;;;;;;10.73;2.05;;;3.10;99.90;;;;;;6272986;22;20016;-74
2022/02/19 07:15:12;;;;;;;14.88;1.95;;;3.10;99.90;;;;;;6273966;22;20007;-74
2022/02/19 07:17:52;;;;;;;8.80;1.70;;;3.20;99.90;;;;;;6273413;22;20030;-74
2022/02/19 07:20:23;;;;;;;12.88;1.80;;;3.30;99.90;;;;;;6273756;22;19996;-74
2022/02/19 07:22:52;;;;;;;14.07;2.58;;;3.30;99.90;;;;;;6273606;22;20004;-73
2022/02/19 07:25:19;;;;;;;14.10;2.75;;;3.50;99.70;;;;;;6274064;22;20000;-73
2022/02/19 07:27:46;;;;;;;12.80;2.38;;;3.80;99.20;;;;;;6273520;22;19999;-73
2022/02/19 07:30:15;;;;;;;11.82;2.90;;;4.30;97.60;;;;;;6273794;22;20026;-74
2022/02/19 07:32:41;;;;;;;18.17;4.43;;;4.80;95.70;;;;;;6272934;22;20011;-73
2022/02/19 07:35:08;;;;;;;19.60;5.22;;;5.40;93.80;;;;;;6273255;22;20083;-74
2022/02/19 07:37:35;;;;;;;17.38;4.50;;;5.90;91.80;;;;;;6273116;22;20000;-73
2022/02/19 07:40:02;;;;;;;16.02;3.85;;;6.50;90.40;;;;;;6246284;22;20085;-73
2022/02/19 07:42:27;;;;;;;13.45;3.53;;;7.10;86.90;;;;;;6273262;22;20344;-74
2022/02/19 07:44:53;;;;;;;12.95;3.30;;;7.60;83.30;;;;;;6273668;22;20082;-73
2022/02/19 07:47:30;;;;;;;12.60;3.78;;;8.20;80.00;;;;;;6273554;22;20075;-73
2022/02/19 07:58:19;;;;;;;13.45;3.15;;;10.90;66.20;;;;;;6272812;22;20070;-73
2022/02/19 08:00:53;;;;;;;17.92;3.40;;;11.70;63.30;;;;;;6272973;22;20098;-73
2022/02/19 08:03:20;;;;;;;12.50;3.20;;;12.40;60.60;;;;;;6273843;22;20474;-76
2022/02/19 08:05:47;;;;;;;11.43;3.30;;;13.10;57.90;;;;;;6273620;22;20007;-73
2022/02/19 08:08:13;;;;;;;17.30;3.40;;;13.80;55.00;;;;;;6273343;22;20686;-73
2022/02/19 08:10:39;;;;;;;15.18;3.53;;;14.40;52.40;;;;;;6272770;22;20437;-73
2022/02/19 08:13:07;;;;;;;12.57;3.08;;;15.20;50.40;;;;;;6273596;22;20011;-74
2022/02/19 08:15:36;;;;;;;13.25;3.10;;;15.80;48.60;;;;;;6273458;22;20004;-73
2022/02/19 08:18:07;;;;;;;13.57;3.05;;;16.50;46.30;;;;;;6273133;22;20000;-73
2022/02/19 08:20:38;;;;;;;16.23;3.42;;;17.10;44.80;;;;;;6272703;22;20455;-73
2022/02/19 08:23:05;;;;;;;16.13;3.40;;;17.70;43.60;;;;;;6273038;22;20003;-73
2022/02/19 08:25:31;;;;;;;13.02;2.80;;;18.30;40.70;;;;;;6272716;22;20007;-73
2022/02/19 08:27:58;;;;;;;14.23;3.15;;;18.90;40.00;;;;;;6273884;22;20012;-73
2022/02/19 08:30:24;;;;;;;12.88;3.00;;;19.40;39.20;;;;;;6273272;22;20432;-73
2022/02/19 08:32:50;;;;;;;12.85;3.85;;;20.10;37.70;;;;;;6273635;22;20080;-73
2022/02/19 08:35:16;;;;;;;13.25;3.20;;;20.60;37.00;;;;;;6272665;22;20011;-73
2022/02/19 08:37:42;;;;;;;16.95;2.95;;;21.20;35.00;;;;;;6273207;22;20003;-73
2022/02/19 08:40:10;;;;;;;13.38;2.80;;;21.80;33.60;;;;;;6272679;22;20378;-73
2022/02/19 08:42:37;;;;;;;14.23;2.85;;;22.30;33.10;;;;;;6272902;22;20011;-73
2022/02/19 08:45:05;;;;;;;16.60;3.10;;;22.90;32.50;;;;;;6273412;22;20076;-73
2022/02/19 08:47:33;;;;;;;15.82;2.70;;;23.50;31.70;;;;;;6272750;22;20053;-74
2022/02/19 08:49:59;;;;;;;13.95;2.60;;;24.10;30.60;;;;;;6273030;22;19996;-75
2022/02/19 08:52:25;;;;;;;14.32;2.55;;;24.70;29.40;;;;;;6272843;22;20016;-74
2022/02/19 08:54:51;;;;;;;14.40;2.83;;;25.20;28.60;;;;;;6272545;22;20006;-74
2022/02/19 08:57:18;;;;;;;11.73;2.97;;;25.60;27.90;;;;;;6273294;22;20356;-74
2022/02/19 08:59:44;;;;;;;14.13;3.13;;;26.00;27.50;;;;;;6273026;22;20000;-74
2022/02/19 09:02:09;;;;;;;14.52;2.83;;;26.50;26.80;;;;;;6273046;22;20395;-74
2022/02/19 09:04:35;;;;;;;16.75;3.00;;;27.00;26.60;;;;;;6273501;22;20050;-74
2022/02/19 09:07:01;;;;;;;11.85;2.85;;;27.40;26.00;;;;;;6273157;22;20408;-74
2022/02/19 09:09:27;;;;;;;14.55;3.00;;;27.80;25.70;;;;;;6272876;22;20006;-74
2022/02/19 09:11:53;;;;;;;13.75;3.00;;;28.10;25.40;;;;;;6272633;22;20004;-74
2022/02/19 09:14:18;;;;;;;13.73;3.20;;;28.40;25.00;;;;;;6273477;22;20039;-74
2022/02/19 09:16:44;;;;;;;12.70;2.65;;;28.80;24.80;;;;;;6273041;22;20007;-74
2022/02/19 09:19:10;;;;;;;16.52;2.90;;;29.30;24.40;;;;;;6273078;22;20014;-74
2022/02/19 09:21:38;;;;;;;13.65;2.90;;;29.50;23.50;;;;;;6275127;22;20011;-74
2022/02/19 09:24:04;;;;;;;9.75;2.55;;;29.70;23.20;;;;;;6274796;22;20122;-74
2022/02/19 09:26:30;;;;;;;13.85;2.60;;;29.80;22.90;;;;;;6274799;22;20039;-74
2022/02/19 09:28:56;;;;;;;12.25;2.60;;;29.70;22.90;;;;;;6274818;22;19999;-74
2022/02/19 09:31:22;;;;;;;11.27;2.22;;;29.90;22.80;;;;;;6274390;22;20011;-74
2022/02/19 09:33:48;;;;;;;14.95;2.72;;;30.10;22.60;;;;;;6275250;22;20352;-74
2022/02/19 09:36:15;;;;;;;12.23;2.80;;;30.20;22.90;;;;;;6274855;22;20027;-74
2022/02/19 09:38:41;;;;;;;8.65;2.05;;;30.40;22.90;;;;;;6274254;22;20448;-73
2022/02/19 09:41:11;;;;;;;11.40;2.40;;;30.80;22.50;;;;;;6274554;22;20075;-72
2022/02/19 09:43:38;;;;;;;10.63;2.45;;;31.00;21.90;;;;;;6274113;22;20511;-74
2022/02/19 09:46:05;;;;;;;11.55;2.47;;;31.10;22.00;;;;;;6246976;22;20003;-74
2022/02/19 09:48:32;;;;;;;13.95;2.70;;;31.50;22.00;;;;;;6274737;22;20010;-72
2022/02/19 09:50:58;;;;;;;10.40;2.25;;;31.70;21.10;;;;;;6274502;22;20033;-72
2022/02/19 09:53:28;;;;;;;11.20;2.10;;;32.00;21.30;;;;;;6246936;22;20016;-73
2022/02/19 09:55:55;;;;;;;10.90;2.35;;;32.00;20.90;;;;;;6274108;22;20090;-73
2022/02/19 09:58:24;;;;;;;12.40;2.30;;;32.20;20.80;;;;;;6274625;22;20321;-71
2022/02/19 10:00:50;;;;;;;11.07;2.38;;;32.60;20.80;;;;;;6274506;22;20321;-73
2022/02/19 10:03:21;;;;;;;11.05;2.10;;;32.90;20.40;;;;;;6274237;22;19999;-73
2022/02/19 10:05:51;;;;;;;10.93;2.30;;;33.20;20.00;;;;;;6273967;22;20000;-73
2022/02/19 10:08:17;;;;;;;8.43;1.92;;;33.60;19.70;;;;;;6273107;22;20004;-72
2022/02/19 10:10:48;;;;;;;9.55;2.30;;;33.90;19.50;;;;;;6273468;22;19996;-73
2022/02/19 10:13:53;;;;;;;9.13;3.70;;;34.00;19.20;;;;;;6273560;22;20022;-72
2022/02/19 10:16:27;;;;;;;11.43;2.20;;;34.00;19.00;;;;;;6120492;23;20254;-73
2022/02/19 10:18:53;;;;;;;9.35;2.05;;;34.10;18.80;;;;;;6120906;23;20028;-73
2022/02/19 10:21:24;;;;;;;9.45;2.33;;;34.40;18.90;;;;;;6120282;23;20392;-73
2022/02/19 10:23:53;;;;;;;7.38;2.00;;;34.70;18.90;;;;;;6119053;23;20017;-72
2022/02/19 10:26:23;;;;;;;8.43;2.08;;;35.10;18.80;;;;;;6096552;23;20013;-74
2022/02/19 10:29:02;;;;;;;8.13;2.07;;;35.30;18.80;;;;;;6120740;23;20077;-73
2022/02/19 10:31:28;;;;;;;8.05;1.80;;;35.50;18.60;;;;;;6119945;23;20009;-71
2022/02/19 10:34:04;;;;;;;10.27;2.20;;;35.90;18.10;;;;;;6120681;23;20824;-74
2022/02/19 10:36:47;;;;;;;8.65;2.20;;;36.40;18.10;;;;;;6120787;23;20013;-72
2022/02/19 10:39:13;;;;;;;7.80;2.10;;;36.60;17.60;;;;;;6121056;23;20013;-73
2022/02/19 10:41:41;;;;;;;7.07;1.90;;;36.80;18.00;;;;;;6120813;23;20006;-73
2022/02/19 10:44:21;;;;;;;9.82;2.10;;;37.00;17.80;;;;;;6119571;23;20037;-73
2022/02/19 10:46:47;;;;;;;8.00;1.95;;;37.10;17.50;;;;;;6179012;22;20008;-74
2022/02/19 10:49:13;;;;;;;11.20;2.15;;;37.30;17.40;;;;;;6271738;22;20000;-73
2022/02/19 10:51:43;;;;;;;10.98;2.08;;;37.40;17.30;;;;;;6273172;22;19995;-75
2022/02/19 10:54:11;;;;;;;6.88;2.00;;;37.40;17.00;;;;;;6271770;22;20014;-72
2022/02/19 10:56:38;;;;;;;8.05;1.80;;;37.70;16.90;;;;;;6273093;22;20385;-79
2022/02/19 10:59:05;;;;;;;9.80;1.90;;;37.70;16.70;;;;;;6270689;22;20034;-73
2022/02/19 11:01:41;;;;;;;9.40;2.13;;;37.90;16.80;;;;;;6272371;22;20021;-74
2022/02/19 11:04:08;;;;;;;8.38;1.98;;;37.60;16.80;;;;;;6272729;22;20717;-73
2022/02/19 11:06:34;;;;;;;6.50;1.70;;;37.70;16.90;;;;;;6244479;22;20083;-72
2022/02/19 11:09:02;;;;;;;8.82;2.08;;;37.60;16.80;;;;;;6273736;22;20004;-74
2022/02/19 11:11:28;;;;;;;7.65;1.88;;;37.40;16.60;;;;;;6272489;22;20428;-70
2022/02/19 11:13:57;;;;;;;6.93;1.83;;;37.30;16.70;;;;;;6273464;22;20004;-71
2022/02/19 11:16:24;;;;;;;7.00;1.60;;;37.00;16.80;;;;;;6273874;22;20383;-71
2022/02/19 11:18:50;;;;;;;9.38;2.25;;;36.80;17.00;;;;;;6273057;22;20501;-72
2022/02/19 11:21:17;;;;;;;7.43;1.80;;;36.70;16.90;;;;;;6246522;22;20042;-71
2022/02/19 11:23:46;;;;;;;7.85;1.83;;;36.50;16.90;;;;;;6273711;22;20002;-71
2022/02/19 11:26:13;;;;;;;9.80;1.80;;;36.90;17.20;;;;;;6273450;22;20141;-70
2022/02/19 11:28:39;;;;;;;6.70;1.65;;;37.00;17.00;;;;;;6273753;22;20023;-71
2022/02/19 11:31:09;;;;;;;8.13;1.85;;;36.70;16.90;;;;;;6273620;22;20432;-71
2022/02/19 11:33:39;;;;;;;6.93;1.85;;;36.10;17.30;;;;;;6272982;22;20069;-71
2022/02/19 11:36:09;;;;;;;9.23;1.60;;;34.80;17.90;;;;;;6273429;22;20008;-71
2022/02/19 11:38:46;;;;;;;8.57;1.80;;;34.20;18.80;;;;;;6273449;22;20038;-72
2022/02/19 11:41:15;;;;;;;8.20;2.10;;;34.00;19.00;;;;;;6273049;22;20010;-69
2022/02/19 11:43:43;;;;;;;8.10;1.80;;;34.90;18.40;;;;;;6272754;22;20000;-68
2022/02/19 11:46:15;;;;;;;10.60;1.88;;;33.10;18.80;;;;;;6273071;22;20011;-69
2022/02/19 11:48:46;;;;;;;7.53;1.95;;;31.60;20.60;;;;;;6272871;22;20079;-70
2022/02/19 11:51:38;;;;;;;9.25;1.80;;;32.10;20.10;;;;;;6273218;22;20000;-70
2022/02/19 11:54:04;;;;;;;8.05;1.83;;;31.30;21.10;;;;;;6266043;22;20456;-70
2022/02/19 11:56:38;;;;;;;9.80;1.70;;;31.90;20.30;;;;;;6272273;22;20039;-71
2022/02/19 11:59:06;;;;;;;7.40;1.90;;;32.30;20.70;;;;;;6273048;22;20074;-70
2022/02/19 12:01:32;;;;;;;8.57;1.90;;;31.40;21.40;;;;;;6271814;22;20024;-70
2022/02/19 12:04:14;;;;;;;8.93;1.70;;;31.80;20.60;;;;;;6270184;22;20003;-70
2022/02/19 12:06:43;;;;;;;8.82;1.45;;;30.60;21.60;;;;;;6270596;22;20025;-70
2022/02/19 12:09:17;;;;;;;9.20;1.63;;;31.20;20.90;;;;;;6272067;22;19999;-70
2022/02/19 12:11:55;;;;;;;7.43;1.55;;;31.70;20.50;;;;;;6272656;22;20026;-71
2022/02/19 12:14:51;;;;;;;9.00;1.60;;;31.50;20.80;;;;;;6273025;22;20011;-70
2022/02/19 12:17:22;;;;;;;10.55;2.08;;;30.80;21.20;;;;;;6258703;22;20078;-71
2022/02/19 12:19:56;;;;;;;8.20;2.00;;;31.80;20.20;;;;;;6268640;22;20007;-71
2022/02/19 12:22:34;;;;;;;8.98;1.90;;;33.60;19.20;;;;;;6272382;22;20008;-72
2022/02/19 12:25:12;;;;;;;7.30;1.58;;;35.00;18.30;;;;;;6272558;22;20003;-71
2022/02/19 12:27:40;;;;;;;8.80;1.70;;;33.80;18.80;;;;;;6245763;22;20057;-71
2022/02/19 12:30:23;;;;;;;8.05;3.08;;;31.00;20.20;;;;;;6272099;22;20071;-70
2022/02/19 12:33:01;;;;;;;6.95;1.60;;;32.20;18.80;;;;;;6273173;22;20073;-70
2022/02/19 12:35:39;;;;;;;6.68;1.50;;;31.80;18.80;;;;;;6272572;22;20004;-72
2022/02/19 12:38:05;;;;;;;7.15;1.40;;;31.50;19.10;;;;;;6272752;22;20007;-73
2022/02/19 12:40:32;;;;;;;8.32;1.52;;;33.10;17.70;;;;;;6271743;22;20004;-72
2022/02/19 12:42:58;;;;;;;6.15;1.50;;;33.90;17.50;;;;;;6272476;22;20010;-71
2022/02/19 12:45:24;;;;;;;5.40;1.20;;;34.60;16.90;;;;;;6270422;22;20075;-72
2022/02/19 12:47:50;;;;;;;7.57;1.50;;;34.70;16.60;;;;;;6272740;22;20024;-72
2022/02/19 12:50:19;;;;;;;5.60;1.30;;;34.70;16.50;;;;;;6272455;22;20011;-72
2022/02/19 12:52:50;;;;;;;7.32;1.63;;;34.60;16.40;;;;;;6271654;22;20011;-72
2022/02/19 12:55:18;;;;;;;7.88;1.35;;;33.00;18.20;;;;;;6273121;22;20007;-72